Aeroporto :
LOGIN :

Iscrizione | Disclaimer

   EN    FR    IT 

 










Sommario :    VFR   VFR Marginale   IFR   IFR Intensivo   IFR Molto Intensivo
Visibilità : 
Base nubi : 
>= 8 km
>= 3000ft
5 / 8 km
1000 / 3000 ft
1500m / 5 km
500 / 1000 ft
800 / 1500m
200 / 500 ft
< 800m
< 200 ft
Simboli :   Temporali  Nebbia  Neve Forte  Precipitazioni Forti  Vento > 20 kt
SIGMETs :   Varie  Temporali  Ghiacco  Turbolenza  Onda orograficha  Ceneri Vulcaniche







- Altitudine del aeroporto : 162 ft
- Codice IATA : BOD
- Carte del aeroporto


LFBD - Bordeaux / Merignac

ULTIMO METAR :
  • 161930Z AUTO 12008KT CAVOK 12/06 Q1022 NOSIG

METARs OBSOLETI :
  • 161900Z AUTO 12008KT CAVOK 12/06 Q1023 NOSIG
  • 161830Z AUTO 11008KT CAVOK 13/06 Q1023 NOSIG
  • 161800Z AUTO 12008KT CAVOK 13/05 Q1023 NOSIG
  • 161730Z AUTO 12007KT CAVOK 14/05 Q1023 NOSIG
  • 161700Z AUTO 12010KT CAVOK 16/04 Q1023 NOSIG

TAF TAF LFBD
Valido dal 16 a 18 ore il 18 a 00 ore UTC


161700Z 1618/1724 12008KT CAVOK TX19/1714Z TN05/1705Z
PROB30
TEMPO 1700/1706 3000 BR
ATIS : +33 5 57 92 81 04
Nessun NOTAM noto per questo aeroporto.



MetMap, La meteo Aeronautica in un colpo d'occhio ! - Copyright ORBIFLY Dicembre 2007 - Disclaimer

ORBIFLY MET'MAP TEAM :

Programmazione e sviluppo : Alexandra Zaïnal
Concezione e sviluppo : Baudouin d'Aumeries
Co-Programmazione e sviluppo : Marc-Olivier Méhu
Supporto tecnico e logistico : Manuel Goepfert
Aiuto per la traduzione : Arnaldo La Scala

Contatto : metmap@orbifly.com




FONTI E CREDITI :

   NOAA